createdAt,value
2022-09-30T00:00:26.049Z,4.18
2022-09-30T00:03:14.383Z,4.16
2022-09-30T00:05:42.165Z,4.13
2022-09-30T00:08:10.128Z,4.11
2022-09-30T00:10:37.781Z,4.07
2022-09-30T00:13:05.518Z,4.03
2022-09-30T00:15:33.264Z,3.99
2022-09-30T00:18:00.957Z,3.96
2022-09-30T00:20:28.853Z,3.96
2022-09-30T00:22:57.145Z,3.94
2022-09-30T00:25:24.952Z,3.93
2022-09-30T00:27:52.584Z,3.94
2022-09-30T00:30:20.220Z,3.97
2022-09-30T00:32:48.168Z,3.99
2022-09-30T00:35:20.446Z,4.01
2022-09-30T00:37:50.209Z,4.06
2022-09-30T00:40:20.273Z,4.06
2022-09-30T00:42:48.051Z,4.06
2022-09-30T00:45:17.999Z,4.06
2022-09-30T00:47:55.303Z,4.03
2022-09-30T00:50:46.056Z,4.03
2022-09-30T00:53:24.912Z,4.01
2022-09-30T00:56:20.709Z,3.99
2022-09-30T00:58:59.812Z,3.99
2022-09-30T01:01:27.964Z,3.97
2022-09-30T01:04:00.602Z,3.96
2022-09-30T01:06:28.921Z,3.97
2022-09-30T01:08:58.558Z,4.01
2022-09-30T01:11:27.832Z,4.05
2022-09-30T01:14:17.405Z,4.10
2022-09-30T01:17:16.574Z,4.15
2022-09-30T01:20:09.196Z,4.20
2022-09-30T01:22:42.191Z,4.28
2022-09-30T01:25:38.356Z,4.37
2022-09-30T01:28:30.180Z,4.44
2022-09-30T01:31:02.197Z,4.50
2022-09-30T01:33:42.130Z,4.56
2022-09-30T01:36:28.542Z,4.60
2022-09-30T01:38:59.076Z,4.67
2022-09-30T01:41:54.527Z,4.71
2022-09-30T01:44:32.053Z,4.75
2022-09-30T01:47:12.008Z,4.77
2022-09-30T01:49:47.535Z,4.78
2022-09-30T01:52:30.461Z,4.80
2022-09-30T01:55:08.143Z,4.82
2022-09-30T01:57:45.464Z,4.86
2022-09-30T02:00:13.652Z,4.93
2022-09-30T02:02:49.161Z,4.99
2022-09-30T02:05:25.047Z,5.02
2022-09-30T02:08:01.246Z,5.03
2022-09-30T02:10:35.672Z,5.05
2022-09-30T02:13:09.579Z,5.07
2022-09-30T02:15:41.674Z,5.09
2022-09-30T02:18:20.366Z,5.11
2022-09-30T02:20:52.695Z,5.13
2022-09-30T02:23:25.934Z,5.12
2022-09-30T02:26:07.203Z,5.08
2022-09-30T02:28:39.526Z,5.06
2022-09-30T02:31:08.836Z,5.03
2022-09-30T02:34:18.856Z,5.02
2022-09-30T02:36:46.443Z,5.02
2022-09-30T02:39:21.524Z,4.99
2022-09-30T02:41:53.246Z,4.95
2022-09-30T02:44:21.103Z,4.92
2022-09-30T02:46:48.886Z,4.90
2022-09-30T02:49:29.443Z,4.86
2022-09-30T02:52:15.847Z,4.83
2022-09-30T02:54:55.750Z,4.81
2022-09-30T02:57:55.822Z,4.80
2022-09-30T03:00:24.215Z,4.76
2022-09-30T03:02:56.446Z,4.73
2022-09-30T03:05:24.096Z,4.70
2022-09-30T03:07:52.077Z,4.69
2022-09-30T03:10:20.117Z,4.69
2022-09-30T03:13:15.985Z,4.68
2022-09-30T03:15:53.575Z,4.66
2022-09-30T03:18:58.694Z,4.63
2022-09-30T03:21:58.827Z,4.60
2022-09-30T03:24:49.886Z,4.59
2022-09-30T03:27:36.013Z,4.59
2022-09-30T03:30:09.923Z,4.57
2022-09-30T03:32:37.647Z,4.52
2022-09-30T03:35:31.063Z,4.50
2022-09-30T03:38:02.523Z,4.48
2022-09-30T03:40:59.968Z,4.45
2022-09-30T03:43:31.650Z,4.43
2022-09-30T03:46:08.827Z,4.42
2022-09-30T03:48:38.766Z,4.41
2022-09-30T03:51:06.312Z,4.39
2022-09-30T03:53:41.438Z,4.37
2022-09-30T03:56:09.353Z,4.34
2022-09-30T03:58:42.269Z,4.31
2022-09-30T04:01:20.060Z,4.30
2022-09-30T04:03:52.442Z,4.28
2022-09-30T04:06:22.748Z,4.24
2022-09-30T04:08:50.829Z,4.23
2022-09-30T04:11:18.669Z,4.21
2022-09-30T04:13:46.461Z,4.17
2022-09-30T04:16:14.272Z,4.13
2022-09-30T04:18:42.423Z,4.09
2022-09-30T04:21:12.738Z,4.08
2022-09-30T04:23:41.969Z,4.08
2022-09-30T04:26:13.163Z,4.09
2022-09-30T04:28:41.247Z,4.08
2022-09-30T04:31:11.929Z,4.08
2022-09-30T04:33:40.403Z,4.10
2022-09-30T04:36:08.158Z,4.11
2022-09-30T04:38:35.910Z,4.10
2022-09-30T04:41:06.843Z,4.08
2022-09-30T04:43:34.806Z,4.05
2022-09-30T04:46:02.853Z,4.06
2022-09-30T04:48:32.454Z,4.07
2022-09-30T04:51:00.928Z,4.05
2022-09-30T04:53:29.300Z,4.04
2022-09-30T04:56:01.184Z,4.04
2022-09-30T04:58:33.368Z,4.03
2022-09-30T05:01:03.875Z,3.94
2022-09-30T05:03:31.818Z,3.86
2022-09-30T05:05:59.906Z,3.82
2022-09-30T05:08:27.758Z,3.84
2022-09-30T05:10:57.782Z,3.90
2022-09-30T05:13:31.845Z,4.00
2022-09-30T05:16:00.334Z,4.09
2022-09-30T05:18:29.153Z,4.20
2022-09-30T05:20:57.737Z,4.29
2022-09-30T05:23:27.127Z,4.40
2022-09-30T05:25:56.031Z,4.49
2022-09-30T05:28:24.658Z,4.57
2022-09-30T05:31:03.544Z,4.66
2022-09-30T05:33:32.027Z,4.77
2022-09-30T05:36:04.937Z,4.86
2022-09-30T05:38:33.767Z,4.94
2022-09-30T05:41:13.104Z,4.98
2022-09-30T05:43:42.767Z,5.05
2022-09-30T05:46:10.573Z,5.13
2022-09-30T05:48:38.255Z,5.23
2022-09-30T05:51:06.451Z,5.33
2022-09-30T05:53:38.677Z,5.43
2022-09-30T05:56:07.733Z,5.53
2022-09-30T05:58:36.475Z,5.65
2022-09-30T06:01:12.801Z,5.75
2022-09-30T06:03:43.514Z,5.81
2022-09-30T06:06:11.696Z,5.88
2022-09-30T06:08:40.425Z,5.95
2022-09-30T06:11:11.938Z,6.04
2022-09-30T06:13:41.374Z,6.20
2022-09-30T06:16:10.572Z,6.35
2022-09-30T06:18:41.247Z,6.51
2022-09-30T06:21:12.265Z,6.70
2022-09-30T06:23:40.514Z,6.84
2022-09-30T06:26:11.728Z,6.90
2022-09-30T06:28:40.160Z,6.96
2022-09-30T06:31:08.573Z,7.00
2022-09-30T06:33:36.410Z,6.99
2022-09-30T06:36:04.798Z,7.05
2022-09-30T06:38:34.208Z,7.18
2022-09-30T06:41:01.937Z,7.40
2022-09-30T06:43:29.798Z,7.65
2022-09-30T06:46:10.654Z,7.90
2022-09-30T06:48:41.676Z,8.32
2022-09-30T06:51:12.365Z,8.72
2022-09-30T06:53:40.308Z,9.08
2022-09-30T06:56:08.220Z,9.37
2022-09-30T06:58:36.230Z,9.58
2022-09-30T07:01:06.435Z,9.73
2022-09-30T07:03:36.136Z,9.88
2022-09-30T07:06:04.542Z,10.08
2022-09-30T07:08:34.257Z,10.16
2022-09-30T07:11:04.437Z,10.27
2022-09-30T07:13:33.215Z,10.42
2022-09-30T07:16:01.645Z,10.58
2022-09-30T07:18:29.502Z,10.79
2022-09-30T07:20:57.328Z,11.17
2022-09-30T07:23:27.212Z,11.60
2022-09-30T07:26:01.082Z,11.98
2022-09-30T07:28:33.129Z,12.13
2022-09-30T07:31:31.205Z,12.25
2022-09-30T07:33:56.739Z,12.55
2022-09-30T07:36:33.057Z,12.57
2022-09-30T07:39:07.437Z,12.58
2022-09-30T07:41:38.917Z,12.65
2022-09-30T07:44:14.380Z,12.67
2022-09-30T07:46:43.953Z,12.79
2022-09-30T07:49:24.420Z,12.93
2022-09-30T07:51:55.591Z,13.02
2022-09-30T07:54:26.557Z,13.15
2022-09-30T07:57:09.628Z,13.24
2022-09-30T07:59:40.931Z,13.34
2022-09-30T08:02:16.225Z,13.48
2022-09-30T08:04:44.945Z,13.70
2022-09-30T08:07:14.478Z,13.92
2022-09-30T08:09:42.378Z,14.11
2022-09-30T08:12:10.233Z,14.15
2022-09-30T08:14:38.029Z,14.12
2022-09-30T08:17:06.318Z,14.15
2022-09-30T08:19:35.341Z,14.27
2022-09-30T08:24:36.082Z,14.33
2022-09-30T08:27:03.971Z,14.44
2022-09-30T08:32:21.827Z,14.51
2022-09-30T08:34:49.817Z,14.51
2022-09-30T08:37:18.427Z,14.41
2022-09-30T08:39:48.466Z,14.33
2022-09-30T08:42:37.452Z,14.23
2022-09-30T08:45:18.906Z,14.08
2022-09-30T08:48:28.867Z,14.03
2022-09-30T08:51:10.195Z,14.06
2022-09-30T08:53:41.838Z,14.21
2022-09-30T08:56:23.771Z,14.27
2022-09-30T08:58:57.007Z,14.23
2022-09-30T09:01:40.734Z,14.25
2022-09-30T09:04:08.824Z,14.20
2022-09-30T09:06:45.252Z,14.20
2022-09-30T09:09:38.979Z,14.16
